NOZ995 EKBI-ENGM
Flight info
| Callsign | NOZ995 |
|---|---|
| Flight time | 0h 51m |
| Altitude | 34000 |
| Route | INTET DCT RETKA DCT PIPEX/N0430F350 DCT RIPAM |
| Aircraft | B738/M-SDE2E3GHIJ1LRWXY/LB1 |
Departure
| Time | 2026-05-04 17:35 |
|---|---|
| Airport | Billund Airport (EKBI) |
Arrival
| Time | 2026-05-04 18:26 |
|---|---|
| Airport | Oslo-Gardermoen International Airport (ENGM) |
| Time | Latitude | Longitude | Altitude | Speed | Heading |
|---|---|---|---|---|---|
| 2026-05-04 16:44 | 55.74533 | 9.14815 | 215 ft | 0 kts | 357° |
| 2026-05-04 17:24 | 55.74532 | 9.14816 | 215 ft | 2 kts | 357° |
| 2026-05-04 17:25 | 55.74507 | 9.14818 | 218 ft | 4 kts | 357° |
| 2026-05-04 17:25 | 55.74459 | 9.14846 | 217 ft | 4 kts | 303° |
| 2026-05-04 17:26 | 55.74452 | 9.14887 | 215 ft | 0 kts | 266° |
| 2026-05-04 17:29 | 55.74446 | 9.14695 | 218 ft | 7 kts | 266° |
| 2026-05-04 17:29 | 55.74353 | 9.14468 | 222 ft | 12 kts | 178° |
| 2026-05-04 17:30 | 55.74186 | 9.14692 | 215 ft | 16 kts | 85° |
| 2026-05-04 17:31 | 55.74201 | 9.15179 | 215 ft | 24 kts | 86° |
| 2026-05-04 17:31 | 55.74233 | 9.16201 | 217 ft | 30 kts | 86° |
| 2026-05-04 17:32 | 55.74255 | 9.16903 | 218 ft | 27 kts | 86° |
| 2026-05-04 17:33 | 55.74282 | 9.17800 | 219 ft | 22 kts | 86° |
| 2026-05-04 17:33 | 55.74283 | 9.18039 | 215 ft | 16 kts | 104° |
| 2026-05-04 17:34 | 55.74115 | 9.17810 | 215 ft | 49 kts | 266° |
| 2026-05-04 17:34 | 55.74083 | 9.16774 | 220 ft | 116 kts | 266° |
| 2026-05-04 17:35 | 55.74167 | 9.11222 | 1696 ft | 174 kts | 302° |
| 2026-05-04 17:35 | 55.76592 | 9.09498 | 2527 ft | 217 kts | 356° |
| 2026-05-04 17:35 | 55.78145 | 9.09286 | 3006 ft | 232 kts | 353° |
| 2026-05-04 17:36 | 55.79856 | 9.09188 | 3387 ft | 256 kts | 357° |
| 2026-05-04 17:36 | 55.81623 | 9.09188 | 4236 ft | 259 kts | 358° |
| 2026-05-04 17:36 | 55.83443 | 9.09198 | 5066 ft | 265 kts | 357° |
| 2026-05-04 17:36 | 55.85308 | 9.09203 | 5893 ft | 269 kts | 357° |
| 2026-05-04 17:37 | 55.87189 | 9.09202 | 6744 ft | 272 kts | 356° |
| 2026-05-04 17:37 | 55.89095 | 9.09193 | 7579 ft | 276 kts | 356° |
| 2026-05-04 17:37 | 55.91029 | 9.09178 | 8407 ft | 280 kts | 355° |
| 2026-05-04 17:37 | 55.92988 | 9.09158 | 9255 ft | 284 kts | 355° |
| 2026-05-04 17:38 | 55.94980 | 9.09135 | 10088 ft | 288 kts | 355° |
| 2026-05-04 17:38 | 55.97006 | 9.09105 | 10498 ft | 306 kts | 355° |
| 2026-05-04 17:38 | 55.99218 | 9.09066 | 10723 ft | 329 kts | 355° |
| 2026-05-04 17:38 | 56.01552 | 9.09030 | 11251 ft | 339 kts | 355° |
| 2026-05-04 17:39 | 56.06327 | 9.08968 | 12785 ft | 347 kts | 355° |
| 2026-05-04 17:39 | 56.08752 | 9.08936 | 13557 ft | 351 kts | 355° |
| 2026-05-04 17:39 | 56.11209 | 9.08901 | 14287 ft | 355 kts | 355° |
| 2026-05-04 17:40 | 56.13659 | 9.08866 | 15036 ft | 358 kts | 355° |
| 2026-05-04 17:40 | 56.16161 | 9.08829 | 15809 ft | 361 kts | 355° |
| 2026-05-04 17:40 | 56.18681 | 9.08791 | 16568 ft | 364 kts | 355° |
| 2026-05-04 17:40 | 56.21228 | 9.08751 | 17317 ft | 368 kts | 355° |
| 2026-05-04 17:41 | 56.23803 | 9.08711 | 18056 ft | 372 kts | 355° |
| 2026-05-04 17:41 | 56.26399 | 9.08669 | 18721 ft | 375 kts | 355° |
| 2026-05-04 17:41 | 56.29023 | 9.08627 | 19358 ft | 378 kts | 355° |
| 2026-05-04 17:41 | 56.31667 | 9.08586 | 19991 ft | 382 kts | 355° |
| 2026-05-04 17:42 | 56.34298 | 9.08544 | 20609 ft | 385 kts | 355° |
| 2026-05-04 17:42 | 56.36987 | 9.08501 | 21221 ft | 388 kts | 355° |
| 2026-05-04 17:42 | 56.39697 | 9.08458 | 21826 ft | 392 kts | 355° |
| 2026-05-04 17:42 | 56.42435 | 9.08415 | 22417 ft | 395 kts | 355° |
| 2026-05-04 17:43 | 56.45195 | 9.08370 | 23008 ft | 399 kts | 355° |
| 2026-05-04 17:43 | 56.47986 | 9.08326 | 23572 ft | 402 kts | 355° |
| 2026-05-04 17:43 | 56.50792 | 9.08281 | 24036 ft | 405 kts | 355° |
| 2026-05-04 17:43 | 56.53630 | 9.08233 | 24507 ft | 409 kts | 355° |
| 2026-05-04 17:44 | 56.56487 | 9.08187 | 24955 ft | 413 kts | 355° |
| 2026-05-04 17:44 | 56.59367 | 9.08141 | 25418 ft | 415 kts | 355° |
| 2026-05-04 17:44 | 56.62264 | 9.08096 | 25875 ft | 418 kts | 355° |
| 2026-05-04 17:44 | 56.65139 | 9.08050 | 26304 ft | 420 kts | 355° |
| 2026-05-04 17:45 | 56.68077 | 9.08003 | 26728 ft | 423 kts | 355° |
| 2026-05-04 17:45 | 56.71033 | 9.07955 | 27142 ft | 426 kts | 355° |
| 2026-05-04 17:45 | 56.74004 | 9.07907 | 27553 ft | 429 kts | 355° |
| 2026-05-04 17:45 | 56.77001 | 9.07859 | 27960 ft | 431 kts | 355° |
| 2026-05-04 17:46 | 56.80007 | 9.07810 | 28390 ft | 434 kts | 355° |
| 2026-05-04 17:46 | 56.83031 | 9.07761 | 28815 ft | 435 kts | 355° |
| 2026-05-04 17:46 | 56.86064 | 9.07712 | 29267 ft | 436 kts | 355° |
| 2026-05-04 17:46 | 56.89093 | 9.07664 | 29821 ft | 434 kts | 355° |
| 2026-05-04 17:47 | 56.92108 | 9.07617 | 30338 ft | 432 kts | 355° |
| 2026-05-04 17:47 | 56.95069 | 9.07570 | 30792 ft | 431 kts | 355° |
| 2026-05-04 17:47 | 56.98064 | 9.07521 | 31196 ft | 430 kts | 355° |
| 2026-05-04 17:47 | 57.01033 | 9.07471 | 31595 ft | 430 kts | 355° |
| 2026-05-04 17:48 | 57.04026 | 9.07421 | 32018 ft | 429 kts | 355° |
| 2026-05-04 17:48 | 57.07007 | 9.07370 | 32491 ft | 427 kts | 354° |
| 2026-05-04 17:48 | 57.09967 | 9.07321 | 32969 ft | 425 kts | 354° |
| 2026-05-04 17:48 | 57.12923 | 9.07272 | 33368 ft | 425 kts | 354° |
| 2026-05-04 17:49 | 57.15882 | 9.07222 | 33729 ft | 425 kts | 354° |
| 2026-05-04 17:49 | 57.18844 | 9.07171 | 33964 ft | 427 kts | 354° |
| 2026-05-04 17:49 | 57.24832 | 9.07066 | 33937 ft | 430 kts | 354° |
| 2026-05-04 17:50 | 57.30709 | 9.06976 | 33931 ft | 422 kts | 354° |
| 2026-05-04 17:50 | 57.36596 | 9.06874 | 33941 ft | 424 kts | 353° |
| 2026-05-04 17:51 | 57.42505 | 9.06772 | 33935 ft | 425 kts | 353° |
| 2026-05-04 17:51 | 57.48434 | 9.06671 | 33931 ft | 426 kts | 353° |
| 2026-05-04 17:52 | 57.54322 | 9.06572 | 33918 ft | 427 kts | 353° |
| 2026-05-04 17:52 | 57.60286 | 9.07607 | 33953 ft | 437 kts | 5° |
| 2026-05-04 17:53 | 57.66241 | 9.10067 | 33914 ft | 439 kts | 6° |
| 2026-05-04 17:53 | 57.72251 | 9.12583 | 33913 ft | 450 kts | 6° |
| 2026-05-04 17:54 | 57.78413 | 9.15077 | 33907 ft | 462 kts | 6° |
| 2026-05-04 17:54 | 57.84762 | 9.17608 | 33897 ft | 471 kts | 6° |
| 2026-05-04 17:55 | 57.91189 | 9.20171 | 33886 ft | 472 kts | 6° |
| 2026-05-04 17:55 | 57.97610 | 9.22743 | 33876 ft | 472 kts | 6° |
| 2026-05-04 17:56 | 58.03977 | 9.25299 | 33866 ft | 472 kts | 6° |
| 2026-05-04 17:56 | 58.10393 | 9.27884 | 33868 ft | 471 kts | 6° |
| 2026-05-04 17:57 | 58.16809 | 9.30476 | 33878 ft | 472 kts | 5° |
| 2026-05-04 17:57 | 58.23234 | 9.33081 | 33860 ft | 472 kts | 5° |
| 2026-05-04 17:58 | 58.29614 | 9.35679 | 33839 ft | 472 kts | 5° |
| 2026-05-04 17:58 | 58.36028 | 9.38300 | 33830 ft | 472 kts | 5° |
| 2026-05-04 17:59 | 58.42441 | 9.40931 | 33830 ft | 471 kts | 5° |
| 2026-05-04 18:00 | 58.52016 | 9.44876 | 33816 ft | 471 kts | 5° |
| 2026-05-04 18:00 | 58.58421 | 9.47527 | 33814 ft | 471 kts | 5° |
| 2026-05-04 18:00 | 58.61640 | 9.48861 | 33445 ft | 474 kts | 5° |
| 2026-05-04 18:01 | 58.64851 | 9.50197 | 33077 ft | 472 kts | 5° |
| 2026-05-04 18:01 | 58.68052 | 9.51534 | 32720 ft | 471 kts | 5° |
| 2026-05-04 18:01 | 58.71252 | 9.52871 | 32269 ft | 471 kts | 5° |
| 2026-05-04 18:02 | 58.77656 | 9.55553 | 31386 ft | 470 kts | 5° |
| 2026-05-04 18:02 | 58.80805 | 9.56876 | 30955 ft | 467 kts | 4° |
| 2026-05-04 18:02 | 58.82933 | 9.57777 | 30663 ft | 460 kts | 4° |
| 2026-05-04 18:02 | 58.87023 | 9.59512 | 30125 ft | 450 kts | 4° |
| 2026-05-04 18:03 | 58.90054 | 9.60798 | 29692 ft | 442 kts | 4° |
| 2026-05-04 18:03 | 58.93037 | 9.62063 | 29239 ft | 435 kts | 4° |
| 2026-05-04 18:03 | 58.95966 | 9.63305 | 28850 ft | 427 kts | 4° |
| 2026-05-04 18:03 | 58.98846 | 9.64528 | 28444 ft | 421 kts | 3° |
| 2026-05-04 18:04 | 59.01674 | 9.65727 | 27994 ft | 415 kts | 3° |
| 2026-05-04 18:04 | 59.04473 | 9.66917 | 27617 ft | 408 kts | 3° |
| 2026-05-04 18:04 | 59.09920 | 9.69237 | 26814 ft | 398 kts | 3° |
| 2026-05-04 18:05 | 59.12609 | 9.70385 | 26418 ft | 393 kts | 2° |
| 2026-05-04 18:05 | 59.15265 | 9.71521 | 26050 ft | 389 kts | 2° |
| 2026-05-04 18:05 | 59.17896 | 9.72648 | 25671 ft | 385 kts | 2° |
| 2026-05-04 18:05 | 59.20500 | 9.73765 | 25294 ft | 381 kts | 2° |
| 2026-05-04 18:06 | 59.25622 | 9.75969 | 24599 ft | 373 kts | 2° |
| 2026-05-04 18:06 | 59.27298 | 9.76690 | 24334 ft | 372 kts | 1° |
| 2026-05-04 18:06 | 59.29822 | 9.77784 | 23957 ft | 370 kts | 2° |
| 2026-05-04 18:07 | 59.33139 | 9.79217 | 23499 ft | 367 kts | 2° |
| 2026-05-04 18:07 | 59.35623 | 9.80289 | 23080 ft | 366 kts | 2° |
| 2026-05-04 18:07 | 59.38102 | 9.81362 | 22674 ft | 363 kts | 1° |
| 2026-05-04 18:07 | 59.39731 | 9.82071 | 22432 ft | 361 kts | 1° |
| 2026-05-04 18:08 | 59.42993 | 9.83491 | 21952 ft | 357 kts | 1° |
| 2026-05-04 18:08 | 59.45411 | 9.84545 | 21598 ft | 354 kts | 2° |
| 2026-05-04 18:08 | 59.47803 | 9.85590 | 21248 ft | 351 kts | 1° |
| 2026-05-04 18:08 | 59.50186 | 9.86629 | 20903 ft | 350 kts | 1° |
| 2026-05-04 18:09 | 59.54339 | 9.88398 | 20345 ft | 393 kts | 2° |
| 2026-05-04 18:09 | 59.59965 | 9.90864 | 19491 ft | 422 kts | 3° |
| 2026-05-04 18:10 | 59.63738 | 9.92567 | 18909 ft | 417 kts | 3° |
| 2026-05-04 18:10 | 59.65640 | 9.93420 | 18648 ft | 414 kts | 3° |
| 2026-05-04 18:10 | 59.68402 | 9.94755 | 18208 ft | 416 kts | 5° |
| 2026-05-04 18:10 | 59.71191 | 9.96317 | 17723 ft | 416 kts | 7° |
| 2026-05-04 18:11 | 59.73957 | 9.97935 | 17271 ft | 412 kts | 7° |
| 2026-05-04 18:11 | 59.76695 | 9.99534 | 16864 ft | 408 kts | 7° |
| 2026-05-04 18:11 | 59.79411 | 10.01096 | 16528 ft | 405 kts | 6° |
| 2026-05-04 18:11 | 59.82104 | 10.02624 | 16089 ft | 402 kts | 6° |
| 2026-05-04 18:12 | 59.85654 | 10.04618 | 15545 ft | 398 kts | 6° |
| 2026-05-04 18:12 | 59.87450 | 10.05624 | 15272 ft | 396 kts | 7° |
| 2026-05-04 18:12 | 59.90060 | 10.07093 | 14889 ft | 393 kts | 7° |
| 2026-05-04 18:12 | 59.92687 | 10.08578 | 14494 ft | 396 kts | 7° |
| 2026-05-04 18:13 | 59.95365 | 10.10091 | 14117 ft | 402 kts | 7° |
| 2026-05-04 18:13 | 59.98049 | 10.11636 | 13719 ft | 401 kts | 8° |
| 2026-05-04 18:13 | 60.03355 | 10.14707 | 12863 ft | 394 kts | 8° |
| 2026-05-04 18:14 | 60.05981 | 10.16222 | 12455 ft | 391 kts | 8° |
| 2026-05-04 18:14 | 60.08587 | 10.17718 | 12116 ft | 389 kts | 9° |
| 2026-05-04 18:14 | 60.11187 | 10.19216 | 11679 ft | 388 kts | 9° |
| 2026-05-04 18:15 | 60.16120 | 10.23409 | 11088 ft | 398 kts | 31° |
| 2026-05-04 18:15 | 60.19896 | 10.31406 | 10570 ft | 391 kts | 51° |
| 2026-05-04 18:15 | 60.21421 | 10.35826 | 10305 ft | 380 kts | 52° |
| 2026-05-04 18:16 | 60.22909 | 10.40160 | 10080 ft | 373 kts | 52° |
| 2026-05-04 18:16 | 60.24361 | 10.44368 | 10021 ft | 361 kts | 51° |
| 2026-05-04 18:16 | 60.25786 | 10.48476 | 9699 ft | 356 kts | 51° |
| 2026-05-04 18:17 | 60.28594 | 10.56513 | 9024 ft | 346 kts | 51° |
| 2026-05-04 18:17 | 60.29971 | 10.60451 | 8705 ft | 340 kts | 51° |
| 2026-05-04 18:17 | 60.32640 | 10.68090 | 8109 ft | 332 kts | 52° |
| 2026-05-04 18:18 | 60.33957 | 10.71869 | 7769 ft | 325 kts | 52° |
| 2026-05-04 18:18 | 60.35228 | 10.75523 | 7480 ft | 313 kts | 52° |
| 2026-05-04 18:18 | 60.36462 | 10.79074 | 7169 ft | 304 kts | 52° |
| 2026-05-04 18:18 | 60.37661 | 10.82529 | 6871 ft | 296 kts | 53° |
| 2026-05-04 18:19 | 60.39955 | 10.89137 | 6388 ft | 279 kts | 53° |
| 2026-05-04 18:19 | 60.41047 | 10.92275 | 6137 ft | 271 kts | 53° |
| 2026-05-04 18:19 | 60.42107 | 10.95362 | 5883 ft | 265 kts | 53° |
| 2026-05-04 18:20 | 60.43161 | 10.98424 | 5810 ft | 270 kts | 53° |
| 2026-05-04 18:20 | 60.44193 | 11.01425 | 5674 ft | 285 kts | 53° |
| 2026-05-04 18:20 | 60.45180 | 11.04876 | 5526 ft | 282 kts | 73° |
| 2026-05-04 18:20 | 60.45278 | 11.08712 | 5365 ft | 270 kts | 105° |
| 2026-05-04 18:21 | 60.44580 | 11.12115 | 5069 ft | 257 kts | 127° |
| 2026-05-04 18:21 | 60.43468 | 11.14804 | 4872 ft | 242 kts | 141° |
| 2026-05-04 18:21 | 60.42275 | 11.17125 | 4687 ft | 235 kts | 143° |
| 2026-05-04 18:21 | 60.41034 | 11.19170 | 4500 ft | 225 kts | 162° |
| 2026-05-04 18:22 | 60.39600 | 11.19520 | 4337 ft | 207 kts | 199° |
| 2026-05-04 18:22 | 60.38210 | 11.18732 | 4015 ft | 210 kts | 202° |
| 2026-05-04 18:22 | 60.36814 | 11.17943 | 3781 ft | 208 kts | 202° |
| 2026-05-04 18:22 | 60.35428 | 11.17138 | 3493 ft | 205 kts | 202° |
| 2026-05-04 18:23 | 60.34070 | 11.16382 | 3215 ft | 203 kts | 199° |
| 2026-05-04 18:23 | 60.32727 | 11.15632 | 2959 ft | 199 kts | 204° |
| 2026-05-04 18:23 | 60.31407 | 11.14791 | 2717 ft | 198 kts | 202° |
| 2026-05-04 18:23 | 60.30083 | 11.14046 | 2437 ft | 196 kts | 201° |
| 2026-05-04 18:24 | 60.28822 | 11.13332 | 2181 ft | 180 kts | 202° |
| 2026-05-04 18:24 | 60.27689 | 11.12679 | 1955 ft | 163 kts | 204° |
| 2026-05-04 18:24 | 60.26664 | 11.12088 | 1758 ft | 145 kts | 205° |
| 2026-05-04 18:24 | 60.25729 | 11.11544 | 1560 ft | 138 kts | 205° |
| 2026-05-04 18:25 | 60.24783 | 11.10998 | 1385 ft | 143 kts | 201° |
| 2026-05-04 18:25 | 60.23833 | 11.10449 | 1187 ft | 141 kts | 201° |
| 2026-05-04 18:25 | 60.22901 | 11.09914 | 1007 ft | 139 kts | 199° |
| 2026-05-04 18:25 | 60.21992 | 11.09410 | 812 ft | 131 kts | 202° |
| 2026-05-04 18:26 | 60.21148 | 11.08904 | 688 ft | 120 kts | 202° |
| 2026-05-04 18:26 | 60.20469 | 11.08507 | 677 ft | 64 kts | 195° |
| 2026-05-04 18:26 | 60.20197 | 11.08353 | 676 ft | 31 kts | 193° |
| 2026-05-04 18:26 | 60.20050 | 11.08301 | 675 ft | 18 kts | 185° |
| 2026-05-04 18:27 | 60.19934 | 11.08331 | 674 ft | 11 kts | 152° |
| 2026-05-04 18:27 | 60.19896 | 11.08426 | 674 ft | 7 kts | 110° |
| 2026-05-04 18:27 | 60.19882 | 11.08515 | 676 ft | 7 kts | 107° |
| 2026-05-04 18:27 | 60.19864 | 11.08634 | 674 ft | 14 kts | 106° |
| 2026-05-04 18:28 | 60.19831 | 11.08872 | 677 ft | 22 kts | 106° |
| 2026-05-04 18:28 | 60.19799 | 11.09100 | 682 ft | 18 kts | 105° |
| 2026-05-04 18:28 | 60.19765 | 11.09339 | 680 ft | 17 kts | 106° |
| 2026-05-04 18:28 | 60.19733 | 11.09556 | 680 ft | 13 kts | 106° |
| 2026-05-04 18:29 | 60.19716 | 11.09681 | 682 ft | 6 kts | 106° |
| 2026-05-04 18:29 | 60.19687 | 11.09740 | 683 ft | 6 kts | 154° |
| 2026-05-04 18:29 | 60.19656 | 11.09789 | 684 ft | 6 kts | 114° |
| 2026-05-04 18:29 | 60.19644 | 11.09865 | 682 ft | 6 kts | 106° |
| 2026-05-04 18:30 | 60.19631 | 11.09954 | 678 ft | 0 kts | 106° |